createdAt,value
2022-12-09T00:01:23.665Z,84.30
2022-12-09T00:03:50.891Z,83.60
2022-12-09T00:06:20.824Z,83.70
2022-12-09T00:08:48.642Z,83.80
2022-12-09T00:11:15.662Z,83.90
2022-12-09T00:13:42.717Z,83.90
2022-12-09T00:16:12.705Z,84.10
2022-12-09T00:18:40.156Z,84.20
2022-12-09T00:21:23.659Z,84.10
2022-12-09T00:23:52.133Z,84.40
2022-12-09T00:26:20.554Z,84.30
2022-12-09T00:28:48.531Z,84.10
2022-12-09T00:31:24.696Z,84.00
2022-12-09T00:33:53.272Z,83.70
2022-12-09T00:36:21.994Z,83.50
2022-12-09T00:38:49.189Z,83.60
2022-12-09T00:41:17.555Z,83.80
2022-12-09T00:43:44.782Z,83.80
2022-12-09T00:46:13.147Z,83.70
2022-12-09T00:48:40.321Z,83.60
2022-12-09T00:51:09.275Z,83.60
2022-12-09T00:53:36.302Z,83.60
2022-12-09T00:56:03.245Z,83.70
2022-12-09T00:58:30.206Z,83.70
2022-12-09T01:00:57.328Z,83.60
2022-12-09T01:03:24.524Z,83.60
2022-12-09T01:05:51.745Z,83.60
2022-12-09T01:08:19.296Z,83.60
2022-12-09T01:10:46.965Z,83.60
2022-12-09T01:13:14.933Z,83.90
2022-12-09T01:15:42.925Z,83.90
2022-12-09T01:18:11.641Z,84.10
2022-12-09T01:20:38.467Z,84.30
2022-12-09T01:23:05.409Z,84.30
2022-12-09T01:25:32.356Z,84.50
2022-12-09T01:27:59.201Z,85.30
2022-12-09T01:30:26.001Z,84.70
2022-12-09T01:32:53.269Z,84.90
2022-12-09T01:35:20.201Z,85.00
2022-12-09T01:37:47.009Z,85.20
2022-12-09T01:40:17.629Z,85.30
2022-12-09T01:42:44.949Z,85.40
2022-12-09T01:45:24.895Z,85.50
2022-12-09T01:47:56.414Z,85.60
2022-12-09T01:50:26.515Z,85.60
2022-12-09T01:52:54.241Z,85.90
2022-12-09T01:55:21.263Z,86.30
2022-12-09T01:57:49.095Z,85.80
2022-12-09T02:00:16.847Z,86.00
2022-12-09T02:02:46.216Z,86.20
2022-12-09T02:05:13.873Z,86.20
2022-12-09T02:07:40.749Z,86.30
2022-12-09T02:10:14.481Z,86.20
2022-12-09T02:13:08.971Z,86.20
2022-12-09T02:15:46.951Z,86.30
2022-12-09T02:18:40.327Z,86.20
2022-12-09T02:21:25.658Z,86.20
2022-12-09T02:24:04.199Z,86.00
2022-12-09T02:26:41.909Z,86.20
2022-12-09T02:29:29.387Z,86.00
2022-12-09T02:31:56.225Z,86.00
2022-12-09T02:34:28.206Z,86.00
2022-12-09T02:37:06.820Z,86.20
2022-12-09T02:39:44.639Z,86.10
2022-12-09T02:42:17.068Z,86.10
2022-12-09T02:44:46.694Z,86.10
2022-12-09T02:47:16.163Z,86.20
2022-12-09T02:49:44.803Z,86.20
2022-12-09T02:52:12.670Z,86.00
2022-12-09T02:54:40.387Z,85.90
2022-12-09T02:57:20.534Z,85.80
2022-12-09T02:59:47.596Z,85.80
2022-12-09T03:02:26.328Z,85.60
2022-12-09T03:05:21.340Z,85.70
2022-12-09T03:07:51.279Z,85.70
2022-12-09T03:10:24.635Z,85.60
2022-12-09T03:13:04.463Z,85.50
2022-12-09T03:15:36.056Z,85.50
2022-12-09T03:18:07.154Z,85.60
2022-12-09T03:20:38.645Z,85.60
2022-12-09T03:23:08.903Z,85.60
2022-12-09T03:25:43.007Z,85.50
2022-12-09T03:28:26.819Z,85.50
2022-12-09T03:30:55.623Z,85.50
2022-12-09T03:33:24.449Z,85.50
2022-12-09T03:35:55.584Z,85.20
2022-12-09T03:38:25.451Z,85.20
2022-12-09T03:41:02.796Z,85.30
2022-12-09T03:43:34.723Z,85.20
2022-12-09T03:46:01.868Z,85.30
2022-12-09T03:48:29.152Z,85.30
2022-12-09T03:51:05.684Z,85.30
2022-12-09T03:53:54.351Z,84.90
2022-12-09T03:56:32.275Z,84.90
2022-12-09T03:59:02.124Z,85.10
2022-12-09T04:01:31.908Z,85.50
2022-12-09T04:03:59.355Z,85.40
2022-12-09T04:06:26.618Z,85.20
2022-12-09T04:08:57.989Z,85.10
2022-12-09T04:11:27.892Z,85.20
2022-12-09T04:13:54.887Z,85.20
2022-12-09T04:16:22.059Z,85.20
2022-12-09T04:18:49.216Z,85.10
2022-12-09T04:21:16.291Z,85.10
2022-12-09T04:23:43.680Z,85.10
2022-12-09T04:26:16.340Z,85.10
2022-12-09T04:28:43.594Z,85.20
2022-12-09T04:31:12.869Z,85.40
2022-12-09T04:33:40.598Z,85.20
2022-12-09T04:36:12.576Z,85.20
2022-12-09T04:38:40.333Z,85.10
2022-12-09T04:41:07.815Z,85.00
2022-12-09T04:43:35.211Z,85.10
2022-12-09T04:46:07.306Z,85.10
2022-12-09T04:48:34.529Z,85.00
2022-12-09T04:51:01.417Z,84.80
2022-12-09T04:53:28.541Z,84.70
2022-12-09T04:56:19.098Z,84.60
2022-12-09T04:58:46.807Z,84.40
2022-12-09T05:01:18.724Z,84.50
2022-12-09T05:03:51.200Z,84.50
2022-12-09T05:06:19.878Z,84.30
2022-12-09T05:08:47.906Z,85.10
2022-12-09T05:11:16.411Z,84.50
2022-12-09T05:13:44.226Z,84.30
2022-12-09T05:16:16.268Z,84.10
2022-12-09T05:18:45.018Z,84.20
2022-12-09T05:21:15.929Z,84.00
2022-12-09T05:23:43.749Z,83.90
2022-12-09T05:26:13.852Z,83.70
2022-12-09T05:28:41.650Z,83.70
2022-12-09T05:31:13.383Z,83.80
2022-12-09T05:33:41.432Z,83.80
2022-12-09T05:36:12.626Z,83.70
2022-12-09T05:38:40.481Z,83.60
2022-12-09T05:41:08.322Z,83.60
2022-12-09T05:43:36.880Z,83.60
2022-12-09T05:46:06.105Z,83.60
2022-12-09T05:48:33.783Z,83.60
2022-12-09T05:51:13.631Z,83.60
2022-12-09T05:53:40.788Z,83.40
2022-12-09T05:56:07.761Z,83.30
2022-12-09T05:58:35.580Z,83.30
2022-12-09T06:01:07.270Z,83.30
2022-12-09T06:03:35.409Z,83.10
2022-12-09T06:06:10.460Z,82.90
2022-12-09T06:08:38.575Z,82.70
2022-12-09T06:11:08.820Z,82.60
2022-12-09T06:13:35.984Z,82.50
2022-12-09T06:16:06.155Z,82.50
2022-12-09T06:18:33.835Z,82.50
2022-12-09T06:21:04.879Z,82.70
2022-12-09T06:23:32.100Z,82.70
2022-12-09T06:25:59.002Z,82.70
2022-12-09T06:28:26.188Z,82.70
2022-12-09T06:30:53.443Z,82.60
2022-12-09T06:33:52.409Z,82.70
2022-12-09T06:36:07.906Z,82.60
2022-12-09T06:38:35.249Z,82.70
2022-12-09T06:41:09.894Z,82.90
2022-12-09T06:43:37.015Z,82.80
2022-12-09T06:46:11.126Z,82.80
2022-12-09T06:48:38.157Z,82.80
2022-12-09T06:51:05.665Z,82.70
2022-12-09T06:53:33.041Z,82.60
2022-12-09T06:56:11.746Z,82.50
2022-12-09T06:58:43.759Z,82.50
2022-12-09T07:01:16.515Z,82.60
2022-12-09T07:03:46.091Z,82.70
2022-12-09T07:06:49.099Z,82.30
2022-12-09T07:09:20.964Z,82.10
2022-12-09T07:11:48.886Z,81.90
2022-12-09T07:14:18.421Z,81.80
2022-12-09T07:16:45.573Z,81.60
2022-12-09T07:19:18.203Z,81.40
2022-12-09T07:21:46.165Z,81.30
2022-12-09T07:24:13.354Z,81.40
2022-12-09T07:26:40.717Z,81.30
2022-12-09T07:29:08.135Z,81.00
2022-12-09T07:31:36.467Z,81.00
2022-12-09T07:34:04.900Z,81.30
2022-12-09T07:36:33.709Z,82.30
2022-12-09T07:39:04.197Z,82.30
2022-12-09T07:41:31.726Z,82.40
2022-12-09T07:43:58.686Z,82.40
2022-12-09T07:46:27.516Z,82.60
2022-12-09T07:48:56.258Z,82.70
2022-12-09T07:51:24.497Z,82.60
2022-12-09T07:53:52.564Z,82.40
2022-12-09T07:56:20.320Z,82.20
2022-12-09T07:58:48.773Z,82.10
2022-12-09T08:01:19.085Z,82.00
2022-12-09T08:03:48.558Z,81.90
2022-12-09T08:06:18.551Z,81.90
2022-12-09T08:08:46.445Z,81.70
2022-12-09T08:11:19.817Z,81.90
2022-12-09T08:13:47.529Z,81.70
2022-12-09T08:16:18.439Z,80.40
2022-12-09T08:18:46.445Z,79.70
2022-12-09T08:21:20.443Z,78.70
2022-12-09T08:23:48.020Z,78.70
2022-12-09T08:26:17.749Z,78.50
2022-12-09T08:28:45.174Z,78.00
2022-12-09T08:31:15.703Z,78.20
2022-12-09T08:33:43.332Z,77.80
2022-12-09T08:36:14.615Z,77.80
2022-12-09T08:38:42.681Z,77.80
2022-12-09T08:41:21.505Z,78.10
2022-12-09T08:43:49.180Z,77.40
2022-12-09T08:46:16.437Z,77.40
2022-12-09T08:48:43.710Z,78.10
2022-12-09T08:51:12.287Z,77.40
2022-12-09T08:53:39.921Z,77.30
2022-12-09T08:56:12.243Z,78.10
2022-12-09T08:58:40.290Z,77.70
2022-12-09T09:01:08.335Z,77.40
2022-12-09T09:03:36.337Z,77.80
2022-12-09T09:06:09.730Z,77.50
2022-12-09T09:08:38.988Z,77.00
2022-12-09T09:11:18.878Z,77.00
2022-12-09T09:13:47.969Z,77.10
2022-12-09T09:16:20.962Z,77.20
2022-12-09T09:18:49.125Z,76.40
2022-12-09T09:21:19.656Z,76.60
2022-12-09T09:23:47.419Z,77.20
2022-12-09T09:26:24.012Z,77.10
2022-12-09T09:28:51.857Z,76.90
2022-12-09T09:31:21.612Z,76.70
2022-12-09T09:33:49.911Z,76.30
2022-12-09T09:36:21.051Z,76.00
2022-12-09T09:38:55.906Z,76.10
2022-12-09T09:41:59.604Z,76.10
2022-12-09T09:44:29.002Z,76.10
2022-12-09T09:46:57.544Z,76.20
2022-12-09T09:49:55.465Z,76.20
2022-12-09T09:52:26.049Z,76.40
2022-12-09T09:54:53.366Z,76.70
2022-12-09T09:57:54.307Z,76.60
2022-12-09T10:00:31.698Z,76.90
2022-12-09T10:03:20.963Z,77.50
2022-12-09T10:05:56.079Z,77.50
2022-12-09T10:09:02.641Z,77.40
2022-12-09T10:11:38.948Z,77.70
2022-12-09T10:14:16.182Z,74.70
2022-12-09T10:16:45.634Z,75.00
2022-12-09T10:19:21.581Z,75.00
2022-12-09T10:21:51.367Z,75.80
2022-12-09T10:24:49.406Z,76.00
2022-12-09T10:27:29.224Z,76.60
2022-12-09T10:30:07.696Z,77.10
2022-12-09T10:32:37.617Z,77.40
2022-12-09T10:35:34.849Z,77.60
2022-12-09T10:38:11.756Z,77.80
2022-12-09T10:40:49.820Z,78.00
2022-12-09T10:43:37.552Z,78.30
2022-12-09T10:46:19.322Z,78.50
2022-12-09T10:48:47.573Z,78.60
2022-12-09T10:51:28.179Z,78.80
2022-12-09T10:54:06.996Z,78.90
2022-12-09T10:56:37.746Z,78.90
2022-12-09T10:59:18.188Z,79.10
2022-12-09T11:01:53.823Z,78.20
2022-12-09T11:04:29.566Z,77.80
2022-12-09T11:07:10.394Z,77.60
2022-12-09T11:09:46.234Z,77.60
2022-12-09T11:12:40.926Z,77.60
2022-12-09T11:15:35.341Z,77.60
2022-12-09T11:18:23.822Z,77.60
2022-12-09T11:20:58.064Z,77.60
2022-12-09T11:23:25.519Z,77.70
2022-12-09T11:25:58.612Z,78.40
2022-12-09T11:28:34.553Z,79.00
2022-12-09T11:31:28.912Z,79.90
2022-12-09T11:34:03.489Z,80.30
2022-12-09T11:36:40.130Z,80.80
2022-12-09T11:39:19.128Z,80.40
2022-12-09T11:42:16.085Z,80.30
2022-12-09T11:45:05.671Z,80.20
2022-12-09T11:50:32.924Z,79.70
2022-12-09T11:53:12.324Z,79.80
2022-12-09T11:55:46.663Z,79.60
2022-12-09T11:58:23.488Z,79.50
2022-12-09T12:01:16.056Z,79.50
2022-12-09T12:03:50.137Z,79.60
2022-12-09T12:06:41.082Z,79.50
2022-12-09T12:09:15.852Z,79.40
2022-12-09T12:12:04.399Z,79.30
2022-12-09T12:14:31.687Z,79.50
2022-12-09T12:17:19.943Z,79.30
2022-12-09T12:19:50.827Z,79.20
2022-12-09T12:23:03.290Z,79.30
2022-12-09T12:25:33.076Z,79.20
2022-12-09T12:28:36.868Z,79.20
2022-12-09T12:31:28.587Z,79.20
2022-12-09T12:34:24.500Z,79.70
2022-12-09T12:37:08.862Z,79.60
2022-12-09T12:39:57.364Z,79.60
2022-12-09T12:42:33.085Z,80.40
2022-12-09T12:45:30.765Z,82.60
2022-12-09T12:48:10.228Z,83.30
2022-12-09T12:50:54.826Z,83.80
2022-12-09T12:53:36.809Z,83.80
2022-12-09T12:56:09.195Z,83.70
2022-12-09T12:58:56.162Z,83.60
2022-12-09T13:01:31.262Z,83.50
2022-12-09T13:04:19.782Z,83.30
2022-12-09T13:07:05.314Z,83.20
2022-12-09T13:09:42.635Z,83.30
2022-12-09T13:12:53.658Z,83.20
2022-12-09T13:15:25.417Z,83.20
2022-12-09T13:17:52.502Z,83.20
2022-12-09T13:20:42.777Z,83.20
2022-12-09T13:23:17.893Z,83.00
2022-12-09T13:26:17.271Z,83.10
2022-12-09T13:29:04.442Z,83.00
2022-12-09T13:31:34.507Z,83.00
2022-12-09T13:34:23.201Z,82.90
2022-12-09T13:36:50.129Z,82.90
2022-12-09T13:39:42.229Z,82.80
2022-12-09T13:42:46.641Z,82.70
2022-12-09T13:45:25.204Z,82.90
2022-12-09T13:47:55.769Z,82.90
2022-12-09T13:50:51.692Z,82.90
2022-12-09T13:53:21.554Z,82.90
2022-12-09T13:56:23.526Z,82.90
2022-12-09T13:58:56.558Z,82.90
2022-12-09T14:01:58.406Z,83.00
2022-12-09T14:04:35.025Z,82.90
2022-12-09T14:07:10.329Z,82.70
2022-12-09T14:09:48.841Z,82.90
2022-12-09T14:12:44.377Z,82.90
2022-12-09T14:15:28.528Z,83.50
2022-12-09T14:18:04.995Z,82.70
2022-12-09T14:20:34.669Z,82.60
2022-12-09T14:23:07.489Z,82.60
2022-12-09T14:25:34.218Z,82.70
2022-12-09T14:28:09.941Z,82.70
2022-12-09T14:31:04.729Z,82.50
2022-12-09T14:33:52.984Z,82.60
2022-12-09T14:36:27.325Z,82.60
2022-12-09T14:41:58.856Z,82.70
2022-12-09T14:44:38.734Z,82.70
2022-12-09T14:47:27.034Z,82.90
2022-12-09T14:49:56.168Z,82.70
2022-12-09T14:52:31.068Z,82.90
2022-12-09T14:55:00.526Z,83.00
2022-12-09T14:57:34.058Z,82.90
2022-12-09T15:00:00.878Z,82.80
2022-12-09T15:02:30.198Z,82.70
2022-12-09T15:05:00.155Z,82.70
2022-12-09T15:07:34.057Z,82.80
2022-12-09T15:10:07.823Z,82.60
2022-12-09T15:13:16.877Z,82.70
2022-12-09T15:16:38.165Z,82.80
2022-12-09T15:19:05.346Z,82.90
2022-12-09T15:21:32.999Z,82.80
2022-12-09T15:24:00.893Z,82.90
2022-12-09T15:26:30.224Z,82.70
2022-12-09T15:28:59.475Z,82.90
2022-12-09T15:31:29.217Z,83.00
2022-12-09T15:33:58.902Z,83.00
2022-12-09T15:36:28.523Z,83.10
2022-12-09T15:39:00.686Z,83.30
2022-12-09T15:41:53.437Z,83.30
2022-12-09T15:44:24.087Z,83.40
2022-12-09T15:46:54.284Z,83.50
2022-12-09T15:49:31.956Z,83.50
2022-12-09T15:52:02.014Z,83.40
2022-12-09T15:54:35.673Z,83.60
2022-12-09T15:57:04.263Z,83.50
2022-12-09T15:59:38.712Z,83.40
2022-12-09T16:02:08.761Z,83.40
2022-12-09T16:04:42.112Z,83.10
2022-12-09T16:07:12.926Z,83.20
2022-12-09T16:09:40.028Z,83.20
2022-12-09T16:12:25.336Z,82.80
2022-12-09T16:14:52.066Z,82.80
2022-12-09T16:17:23.501Z,83.20
2022-12-09T16:19:50.579Z,82.00
2022-12-09T16:22:24.614Z,79.90
2022-12-09T16:28:32.165Z,79.50
2022-12-09T16:31:03.211Z,79.00
2022-12-09T16:33:39.425Z,78.60
2022-12-09T16:36:07.706Z,78.00
2022-12-09T16:38:36.263Z,78.10
2022-12-09T16:41:09.482Z,78.50
2022-12-09T16:43:37.385Z,77.80
2022-12-09T16:46:13.313Z,77.50
2022-12-09T16:48:41.162Z,77.30
2022-12-09T16:51:17.683Z,77.40
2022-12-09T16:53:50.681Z,77.50
2022-12-09T16:56:18.915Z,77.50
2022-12-09T16:58:45.773Z,77.20
2022-12-09T17:01:17.208Z,77.40
2022-12-09T17:03:48.891Z,77.30
2022-12-09T17:06:18.143Z,76.90
2022-12-09T17:08:45.229Z,78.00
2022-12-09T17:11:12.564Z,77.20
2022-12-09T17:13:39.806Z,76.90
2022-12-09T17:16:07.523Z,76.60
2022-12-09T17:18:35.132Z,76.30
2022-12-09T17:21:11.120Z,76.70
2022-12-09T17:23:40.153Z,77.00
2022-12-09T17:26:10.207Z,77.70
2022-12-09T17:28:37.666Z,77.80
2022-12-09T17:31:09.659Z,77.90
2022-12-09T17:33:37.076Z,77.20
2022-12-09T17:36:04.966Z,78.30
2022-12-09T17:38:31.943Z,78.30
2022-12-09T17:41:07.445Z,78.10
2022-12-09T17:43:35.358Z,78.90
2022-12-09T17:46:03.948Z,79.20
2022-12-09T17:48:32.164Z,78.60
2022-12-09T17:50:59.335Z,78.60
2022-12-09T17:53:26.108Z,79.10
2022-12-09T17:55:52.964Z,78.50
2022-12-09T17:58:19.728Z,79.00
2022-12-09T18:00:47.909Z,79.10
2022-12-09T18:03:27.521Z,79.20
2022-12-09T18:06:02.089Z,79.10
2022-12-09T18:08:29.908Z,79.10
2022-12-09T18:10:56.969Z,79.20
2022-12-09T18:13:23.758Z,79.00
2022-12-09T18:15:54.213Z,78.60
2022-12-09T18:18:21.501Z,79.10
2022-12-09T18:20:48.330Z,78.90
2022-12-09T18:23:15.107Z,78.80
2022-12-09T18:25:42.241Z,78.90
2022-12-09T18:28:09.093Z,78.60
2022-12-09T18:30:38.661Z,78.60
2022-12-09T18:33:05.666Z,78.50
2022-12-09T18:35:32.627Z,78.60
2022-12-09T18:38:06.002Z,78.50
2022-12-09T18:41:00.803Z,77.80
2022-12-09T18:43:48.755Z,78.00
2022-12-09T18:46:25.157Z,78.70
2022-12-09T18:49:04.814Z,78.40
2022-12-09T18:51:32.872Z,78.10
2022-12-09T18:54:00.965Z,77.30
2022-12-09T18:56:28.412Z,78.00
2022-12-09T18:59:11.773Z,77.70
2022-12-09T19:01:41.840Z,78.10
2022-12-09T19:04:21.075Z,78.10
2022-12-09T19:06:50.630Z,77.40
2022-12-09T19:09:20.186Z,77.00
2022-12-09T19:11:48.880Z,76.20
2022-12-09T19:14:17.121Z,77.90
2022-12-09T19:16:44.510Z,76.80
2022-12-09T19:19:14.138Z,75.90
2022-12-09T19:21:41.659Z,76.40
2022-12-09T19:24:15.744Z,76.30
2022-12-09T19:26:43.289Z,76.10
2022-12-09T19:29:11.220Z,75.20
2022-12-09T19:31:41.054Z,76.10
2022-12-09T19:34:22.842Z,76.20
2022-12-09T19:36:52.255Z,76.70
2022-12-09T19:39:20.973Z,76.80
2022-12-09T19:41:48.356Z,77.20
2022-12-09T19:44:30.912Z,77.30
2022-12-09T19:47:05.103Z,77.80
2022-12-09T19:49:31.913Z,76.70
2022-12-09T19:52:00.006Z,77.30
2022-12-09T19:54:29.066Z,77.40
2022-12-09T19:56:56.888Z,76.60
2022-12-09T19:59:23.831Z,77.30
2022-12-09T20:02:14.080Z,77.40
2022-12-09T20:04:50.180Z,77.20
2022-12-09T20:07:18.233Z,77.10
2022-12-09T20:09:45.004Z,76.80
2022-12-09T20:12:11.931Z,77.20
2022-12-09T20:14:39.554Z,76.70
2022-12-09T20:17:06.444Z,76.40
2022-12-09T20:19:33.329Z,76.20
2022-12-09T20:22:00.113Z,76.10
2022-12-09T20:24:26.993Z,75.80
2022-12-09T20:26:55.125Z,76.40
2022-12-09T20:29:21.941Z,76.10
2022-12-09T20:31:48.771Z,76.80
2022-12-09T20:34:16.613Z,76.40
2022-12-09T20:36:45.036Z,76.60
2022-12-09T20:39:17.856Z,76.90
2022-12-09T20:41:45.205Z,76.90
2022-12-09T20:44:13.374Z,76.80
2022-12-09T20:46:42.191Z,76.70
2022-12-09T20:49:09.985Z,77.00
2022-12-09T20:51:38.826Z,77.30
2022-12-09T20:54:07.040Z,76.90
2022-12-09T20:56:34.405Z,76.80
2022-12-09T20:59:01.287Z,76.80
2022-12-09T21:01:30.696Z,77.10
2022-12-09T21:03:59.095Z,76.00
2022-12-09T21:06:29.968Z,76.60
2022-12-09T21:08:59.573Z,76.60
2022-12-09T21:11:26.903Z,76.20
2022-12-09T21:13:57.829Z,76.30
2022-12-09T21:16:26.881Z,76.10
2022-12-09T21:18:56.900Z,76.60
2022-12-09T21:21:25.960Z,75.90
2022-12-09T21:23:54.453Z,76.00
2022-12-09T21:26:23.535Z,76.20
2022-12-09T21:28:51.140Z,75.50
2022-12-09T21:31:24.474Z,76.30
2022-12-09T21:33:53.546Z,75.80
2022-12-09T21:36:23.545Z,75.70
2022-12-09T21:38:50.697Z,75.50
2022-12-09T21:41:20.605Z,75.90
2022-12-09T21:43:47.854Z,75.20
2022-12-09T21:46:19.005Z,75.50
2022-12-09T21:48:51.788Z,75.00
2022-12-09T21:51:19.914Z,74.60
2022-12-09T21:53:47.342Z,75.10
2022-12-09T21:56:16.050Z,73.50
2022-12-09T21:58:44.133Z,74.90
2022-12-09T22:01:20.769Z,75.60
2022-12-09T22:03:48.382Z,74.70
2022-12-09T22:06:16.472Z,74.60
2022-12-09T22:08:43.929Z,73.80
2022-12-09T22:11:16.512Z,74.70
2022-12-09T22:13:43.441Z,74.00
2022-12-09T22:16:16.475Z,74.20
2022-12-09T22:18:44.146Z,72.90
2022-12-09T22:21:24.694Z,74.10
2022-12-09T22:23:58.022Z,73.80
2022-12-09T22:26:25.991Z,73.00
2022-12-09T22:28:53.499Z,73.00
2022-12-09T22:31:26.581Z,73.50
2022-12-09T22:33:55.737Z,74.30
2022-12-09T22:36:23.272Z,73.20
2022-12-09T22:38:50.582Z,73.00
2022-12-09T22:41:23.288Z,73.80
2022-12-09T22:43:51.188Z,74.10
2022-12-09T22:46:21.033Z,73.00
2022-12-09T22:48:48.520Z,71.90
2022-12-09T22:51:21.827Z,72.00
2022-12-09T22:53:50.626Z,72.70
2022-12-09T22:56:18.285Z,73.00
2022-12-09T22:58:45.236Z,73.60
2022-12-09T23:01:21.938Z,73.80
2022-12-09T23:03:48.795Z,73.50
2022-12-09T23:06:15.971Z,74.30
2022-12-09T23:08:44.587Z,72.70
2022-12-09T23:11:14.102Z,73.60
2022-12-09T23:13:41.556Z,73.90
2022-12-09T23:16:12.530Z,74.70
2022-12-09T23:18:40.324Z,73.80
2022-12-09T23:21:13.962Z,73.80
2022-12-09T23:23:41.519Z,73.50
2022-12-09T23:26:14.221Z,74.00
2022-12-09T23:28:47.872Z,74.00
2022-12-09T23:31:18.080Z,73.10
2022-12-09T23:33:46.974Z,73.80
2022-12-09T23:36:25.663Z,72.30
2022-12-09T23:38:53.766Z,72.90
2022-12-09T23:41:21.975Z,72.60
2022-12-09T23:43:49.673Z,71.40
2022-12-09T23:46:22.370Z,70.60
2022-12-09T23:48:50.281Z,71.40
2022-12-09T23:51:29.009Z,71.00
2022-12-09T23:53:59.395Z,71.70
2022-12-09T23:56:28.901Z,72.60
2022-12-09T23:58:58.776Z,73.30
